Time;durP1;ratioP1;P1;durP2;ratioP2;P2;SDS_P1;SDS_P2;PMS_P1;PMS_P2;Temp;Humidity;BMP_temperature;BMP_pressure;BME280_temperature;BME280_humidity;BME280_pressure;Samples;Min_cycle;Max_cycle;Signal;HPM_P1;HPM_P2
2022/11/11 00:00:35;;;;;;;4.23;2.10;;;;;;;;;;5007968;28;20736;-72
2022/11/11 00:03:19;;;;;;;8.10;2.43;;;;;;;;;;5007487;28;20224;-73
2022/11/11 00:06:05;;;;;;;4.93;2.13;;;;;;;;;;5007610;28;20307;-73
2022/11/11 00:08:49;;;;;;;6.27;1.97;;;;;;;;;;5022099;28;20234;-72
2022/11/11 00:11:38;;;;;;;3.87;1.87;;;;;;;;;;4992262;28;20327;-72
2022/11/11 00:14:26;;;;;;;5.17;2.07;;;;;;;;;;5006776;28;20356;-72
2022/11/11 00:26:31;;;;;;;3.03;2.07;;;;;;;;;;5018867;28;20223;-75
2022/11/11 00:29:15;;;;;;;4.40;1.80;;;;;;;;;;4992476;28;20359;-74
2022/11/11 00:38:10;;;;;;;4.37;2.53;;;;;;;;;;5007010;28;20251;-72
2022/11/11 00:40:59;;;;;;;4.27;1.90;;;;;;;;;;4993845;28;20271;-74
2022/11/11 00:43:46;;;;;;;3.17;2.20;;;;;;;;;;5020569;28;20312;-73
2022/11/11 00:52:35;;;;;;;6.90;2.10;;;;;;;;;;5009695;28;20235;-72
2022/11/11 00:55:24;;;;;;;4.73;2.07;;;;;;;;;;5008547;28;20248;-73
2022/11/11 00:58:08;;;;;;;2.63;1.90;;;;;;;;;;5007521;28;20227;-73
2022/11/11 01:00:53;;;;;;;6.03;2.60;;;;;;;;;;5010473;28;20725;-74
2022/11/11 01:03:38;;;;;;;8.10;2.43;;;;;;;;;;5009705;28;20235;-74
2022/11/11 01:06:22;;;;;;;6.60;2.50;;;;;;;;;;5025117;28;20745;-74
2022/11/11 01:09:09;;;;;;;4.33;1.97;;;;;;;;;;5011553;28;20219;-74
2022/11/11 01:11:56;;;;;;;6.33;2.73;;;;;;;;;;5011687;28;20278;-74
2022/11/11 01:14:44;;;;;;;6.00;2.80;;;;;;;;;;5024845;28;20271;-73
2022/11/11 01:17:31;;;;;;;4.20;2.20;;;;;;;;;;5011037;28;20316;-73
2022/11/11 01:20:16;;;;;;;5.40;2.20;;;;;;;;;;4996907;28;20236;-73
2022/11/11 01:23:00;;;;;;;6.73;2.30;;;;;;;;;;4996788;28;20597;-74
2022/11/11 01:25:45;;;;;;;3.70;2.00;;;;;;;;;;5024661;28;20825;-73
2022/11/11 01:28:29;;;;;;;6.47;2.27;;;;;;;;;;5010995;28;20351;-73
2022/11/11 01:31:14;;;;;;;4.60;2.17;;;;;;;;;;5010342;28;20238;-73
2022/11/11 01:33:58;;;;;;;4.73;2.30;;;;;;;;;;5025041;28;20248;-74
2022/11/11 01:36:45;;;;;;;2.20;1.80;;;;;;;;;;5010762;28;20242;-73
2022/11/11 01:39:31;;;;;;;3.97;2.17;;;;;;;;;;5010671;28;20239;-74
2022/11/11 01:42:15;;;;;;;4.77;2.13;;;;;;;;;;5011060;28;20335;-73
2022/11/11 01:45:00;;;;;;;5.53;2.17;;;;;;;;;;5010499;28;20283;-74
2022/11/11 01:50:50;;;;;;;3.83;2.17;;;;;;;;;;5010929;28;20758;-73
2022/11/11 01:53:37;;;;;;;3.73;2.10;;;;;;;;;;5013714;28;20239;-73
2022/11/11 01:56:24;;;;;;;4.03;2.37;;;;;;;;;;4999823;28;20263;-72
2022/11/11 01:59:12;;;;;;;3.33;2.00;;;;;;;;;;5010065;28;20733;-74
2022/11/11 02:01:59;;;;;;;3.97;2.00;;;;;;;;;;5009974;28;20235;-73
2022/11/11 02:07:48;;;;;;;3.83;2.20;;;;;;;;;;4999096;28;20231;-74
2022/11/11 02:10:33;;;;;;;5.00;2.23;;;;;;;;;;5022533;28;20247;-73
2022/11/11 02:16:23;;;;;;;4.57;2.20;;;;;;;;;;5010343;28;20247;-74
2022/11/11 02:19:09;;;;;;;4.83;2.47;;;;;;;;;;5010240;28;20310;-73
2022/11/11 02:21:56;;;;;;;4.37;1.80;;;;;;;;;;4995879;28;20790;-74
2022/11/11 02:24:40;;;;;;;2.97;2.30;;;;;;;;;;5010008;28;20354;-74
2022/11/11 02:27:25;;;;;;;4.37;2.10;;;;;;;;;;5009232;28;20294;-75
2022/11/11 02:30:15;;;;;;;3.30;1.97;;;;;;;;;;5000178;28;20283;-73
2022/11/11 02:32:59;;;;;;;3.60;2.10;;;;;;;;;;5009691;28;20294;-74
2022/11/11 02:35:47;;;;;;;4.63;2.27;;;;;;;;;;4995993;28;20796;-74
2022/11/11 02:38:32;;;;;;;4.17;2.40;;;;;;;;;;4996588;28;20223;-74
2022/11/11 02:44:19;;;;;;;5.37;2.43;;;;;;;;;;5020419;28;20247;-74
2022/11/11 02:47:06;;;;;;;5.20;2.50;;;;;;;;;;5009139;28;20235;-73
2022/11/11 02:49:53;;;;;;;4.63;2.57;;;;;;;;;;4998093;28;20228;-73
2022/11/11 02:52:37;;;;;;;4.40;2.40;;;;;;;;;;5021242;28;20236;-73
2022/11/11 02:55:21;;;;;;;3.87;2.00;;;;;;;;;;5001434;28;20251;-73
2022/11/11 02:58:07;;;;;;;5.80;2.33;;;;;;;;;;5012487;28;20369;-74
2022/11/11 03:00:52;;;;;;;5.33;2.57;;;;;;;;;;5007547;28;20902;-73
2022/11/11 03:03:40;;;;;;;5.00;2.27;;;;;;;;;;5009949;28;20255;-74
2022/11/11 03:06:24;;;;;;;2.67;2.00;;;;;;;;;;5008727;28;20767;-73
2022/11/11 03:09:09;;;;;;;3.20;2.00;;;;;;;;;;5007530;28;20307;-73
2022/11/11 03:11:55;;;;;;;2.83;2.00;;;;;;;;;;5007195;28;20227;-72
2022/11/11 03:14:39;;;;;;;5.27;2.43;;;;;;;;;;5006593;28;20236;-73
2022/11/11 03:17:39;;;;;;;2.77;1.80;;;;;;;;;;5008507;28;20219;-74
2022/11/11 03:23:31;;;;;;;3.60;2.17;;;;;;;;;;4996198;28;20219;-73
2022/11/11 03:26:14;;;;;;;3.30;2.07;;;;;;;;;;5012362;28;20987;-74
2022/11/11 03:28:59;;;;;;;4.17;2.33;;;;;;;;;;5008580;28;20256;-74
2022/11/11 03:31:43;;;;;;;2.37;2.10;;;;;;;;;;5007746;28;20287;-73
2022/11/11 03:34:27;;;;;;;4.33;2.43;;;;;;;;;;5008046;28;21031;-74
2022/11/11 03:40:20;;;;;;;3.57;1.93;;;;;;;;;;5009454;28;20223;-74
2022/11/11 03:43:04;;;;;;;3.63;2.40;;;;;;;;;;5007649;28;20236;-75
2022/11/11 03:45:51;;;;;;;2.90;2.17;;;;;;;;;;5022881;28;20222;-74
2022/11/11 03:48:36;;;;;;;2.10;1.90;;;;;;;;;;5021199;28;20235;-74
2022/11/11 03:51:20;;;;;;;4.43;2.20;;;;;;;;;;5007890;28;20274;-73
2022/11/11 03:54:04;;;;;;;2.47;2.03;;;;;;;;;;5006900;28;20247;-74
2022/11/11 03:56:50;;;;;;;5.67;2.40;;;;;;;;;;5008439;28;20712;-74
2022/11/11 03:59:35;;;;;;;4.67;2.23;;;;;;;;;;5008384;28;20294;-74
2022/11/11 04:11:40;;;;;;;3.90;2.30;;;;;;;;;;5005374;28;20270;-73
2022/11/11 04:17:31;;;;;;;4.03;2.23;;;;;;;;;;5016289;28;20312;-72
2022/11/11 04:23:21;;;;;;;3.77;2.30;;;;;;;;;;5006626;28;20218;-73
2022/11/11 04:26:05;;;;;;;3.20;2.40;;;;;;;;;;5006642;28;20226;-73
2022/11/11 04:34:59;;;;;;;3.93;2.27;;;;;;;;;;5010576;23;20378;-83
2022/11/11 04:37:45;;;;;;;3.57;2.20;;;;;;;;;;5005482;28;20238;-82
2022/11/11 04:45:26;;;;;;;3.97;3.00;;;;;;;;;;5022971;28;20277;-82
2022/11/11 04:46:40;;;;;;;5.80;3.00;;;;;;;;;;5003823;28;20224;-82
2022/11/11 04:49:25;;;;;;;4.03;2.43;;;;;;;;;;5006472;28;20223;-81
2022/11/11 04:52:30;;;;;;;5.00;2.67;;;;;;;;;;5021129;28;20281;-83
2022/11/11 04:58:19;;;;;;;2.60;2.40;;;;;;;;;;5014731;28;20227;-82
2022/11/11 05:01:03;;;;;;;4.00;2.23;;;;;;;;;;5004511;28;20641;-81
2022/11/11 05:03:47;;;;;;;3.30;2.30;;;;;;;;;;5005787;28;20327;-81
2022/11/11 05:09:34;;;;;;;2.87;2.20;;;;;;;;;;5012384;28;20323;-82
2022/11/11 05:12:21;;;;;;;6.77;2.20;;;;;;;;;;4995334;28;20249;-82
2022/11/11 05:21:21;;;;;;;3.80;2.20;;;;;;;;;;5020638;28;20323;-80
2022/11/11 05:27:08;;;;;;;3.87;2.40;;;;;;;;;;5010612;28;20239;-84
2022/11/11 05:29:53;;;;;;;4.10;2.53;;;;;;;;;;5011371;28;20227;-83
2022/11/11 05:32:38;;;;;;;3.87;2.40;;;;;;;;;;4985276;28;20299;-81
2022/11/11 05:35:24;;;;;;;4.30;2.40;;;;;;;;;;5011328;28;20866;-83
2022/11/11 05:38:20;;;;;;;5.50;2.50;;;;;;;;;;5008456;28;20271;-81
2022/11/11 05:41:05;;;;;;;6.77;2.53;;;;;;;;;;5018174;28;20743;-81
2022/11/11 05:43:51;;;;;;;2.93;2.20;;;;;;;;;;5010239;28;20294;-81
2022/11/11 05:46:36;;;;;;;5.07;3.07;;;;;;;;;;5017312;28;20256;-80
2022/11/11 05:49:20;;;;;;;4.13;2.37;;;;;;;;;;5016389;28;20235;-82
2022/11/11 05:52:04;;;;;;;3.77;2.70;;;;;;;;;;5005853;28;20231;-84
2022/11/11 05:54:48;;;;;;;5.90;2.67;;;;;;;;;;5015320;28;20793;-82
2022/11/11 05:57:32;;;;;;;4.10;2.63;;;;;;;;;;5038970;28;20231;-84
2022/11/11 06:00:17;;;;;;;3.23;2.23;;;;;;;;;;5030450;28;20226;-81
2022/11/11 06:03:03;;;;;;;3.77;2.47;;;;;;;;;;5029118;28;20223;-84
2022/11/11 06:05:47;;;;;;;5.70;2.40;;;;;;;;;;5011095;28;20250;-82
2022/11/11 06:08:33;;;;;;;2.53;2.27;;;;;;;;;;5013350;28;20743;-81
2022/11/11 06:11:17;;;;;;;5.73;3.00;;;;;;;;;;5029809;28;20719;-85
2022/11/11 06:14:02;;;;;;;3.63;2.50;;;;;;;;;;5012868;28;20285;-82
2022/11/11 06:16:46;;;;;;;6.50;2.90;;;;;;;;;;4998258;28;20226;-85
2022/11/11 06:19:33;;;;;;;4.80;2.43;;;;;;;;;;5010297;28;20262;-81
2022/11/11 06:23:06;;;;;;;6.30;2.30;;;;;;;;;;5030150;28;20696;-83
2022/11/11 06:28:54;;;;;;;2.77;2.10;;;;;;;;;;5030520;28;20727;-80
2022/11/11 06:31:39;;;;;;;5.17;2.70;;;;;;;;;;5057788;28;20238;-79
2022/11/11 06:34:23;;;;;;;2.90;2.43;;;;;;;;;;5020289;28;20254;-82
2022/11/11 06:37:07;;;;;;;4.47;2.20;;;;;;;;;;5013756;23;20271;-73
2022/11/11 06:39:51;;;;;;;4.40;2.40;;;;;;;;;;4994696;28;20614;-74
2022/11/11 06:42:36;;;;;;;5.40;2.60;;;;;;;;;;4978093;28;20233;-73
2022/11/11 06:45:21;;;;;;;4.87;2.33;;;;;;;;;;5025338;23;20237;-80
2022/11/11 06:48:05;;;;;;;4.77;2.40;;;;;;;;;;5029822;28;20377;-80
2022/11/11 06:50:49;;;;;;;6.73;2.13;;;;;;;;;;5021911;28;20285;-79
2022/11/11 06:53:36;;;;;;;4.83;2.50;;;;;;;;;;5052134;28;20238;-80
2022/11/11 06:56:22;;;;;;;2.83;2.37;;;;;;;;;;5031679;28;20262;-81
2022/11/11 06:59:07;;;;;;;2.43;2.13;;;;;;;;;;5021878;28;20274;-81
2022/11/11 07:01:51;;;;;;;3.37;2.10;;;;;;;;;;5040395;28;20612;-82
2022/11/11 07:04:36;;;;;;;6.37;3.30;;;;;;;;;;5039886;28;20314;-81
2022/11/11 07:07:19;;;;;;;3.70;2.70;;;;;;;;;;5035410;28;20250;-80
2022/11/11 07:10:06;;;;;;;5.57;2.47;;;;;;;;;;5024348;28;20314;-80
2022/11/11 07:12:50;;;;;;;3.70;2.33;;;;;;;;;;5026590;28;20663;-81
2022/11/11 07:15:35;;;;;;;4.97;3.13;;;;;;;;;;5028425;28;20234;-80
2022/11/11 07:18:22;;;;;;;3.60;2.60;;;;;;;;;;5013338;28;20230;-83
2022/11/11 07:21:06;;;;;;;3.77;2.57;;;;;;;;;;5027823;28;20222;-82
2022/11/11 07:23:52;;;;;;;4.00;2.60;;;;;;;;;;5028450;28;20311;-83
2022/11/11 07:26:37;;;;;;;4.43;2.67;;;;;;;;;;5034212;28;20230;-82
2022/11/11 07:29:21;;;;;;;4.53;2.47;;;;;;;;;;5015547;28;20288;-81
2022/11/11 07:32:05;;;;;;;3.37;2.30;;;;;;;;;;5013272;28;20714;-83
2022/11/11 07:34:49;;;;;;;3.00;2.53;;;;;;;;;;5031077;28;20298;-81
2022/11/11 07:37:35;;;;;;;6.33;2.83;;;;;;;;;;5028523;28;20221;-81
2022/11/11 07:40:19;;;;;;;4.57;2.57;;;;;;;;;;5043096;28;20219;-79
2022/11/11 07:43:03;;;;;;;4.80;2.73;;;;;;;;;;5031643;28;20265;-81
2022/11/11 07:45:51;;;;;;;4.30;2.63;;;;;;;;;;5043592;28;20242;-83
2022/11/11 07:48:35;;;;;;;5.57;2.90;;;;;;;;;;5027008;28;20280;-84
2022/11/11 07:51:19;;;;;;;4.07;2.90;;;;;;;;;;5026641;28;20257;-79
2022/11/11 07:54:03;;;;;;;4.10;2.83;;;;;;;;;;5013856;28;20281;-82
2022/11/11 07:56:48;;;;;;;5.43;2.90;;;;;;;;;;5032710;28;20286;-80
2022/11/11 07:59:31;;;;;;;3.33;3.00;;;;;;;;;;5041045;28;20312;-80
2022/11/11 08:02:16;;;;;;;6.43;2.97;;;;;;;;;;5024055;28;20229;-84
2022/11/11 08:05:02;;;;;;;4.93;2.70;;;;;;;;;;5012078;28;20229;-83
2022/11/11 08:07:47;;;;;;;6.27;2.70;;;;;;;;;;5025018;28;20257;-82
2022/11/11 08:10:32;;;;;;;3.80;3.00;;;;;;;;;;5052139;28;20226;-80
2022/11/11 08:16:19;;;;;;;5.10;3.27;;;;;;;;;;5047844;28;20296;-83
2022/11/11 08:19:03;;;;;;;6.67;3.47;;;;;;;;;;5023377;28;20238;-78
2022/11/11 08:21:47;;;;;;;4.70;3.50;;;;;;;;;;5029845;28;20234;-81
2022/11/11 08:24:32;;;;;;;5.27;3.30;;;;;;;;;;5017715;28;20241;-81
2022/11/11 08:27:16;;;;;;;3.67;3.27;;;;;;;;;;5022935;28;20588;-81
2022/11/11 08:30:00;;;;;;;3.50;3.20;;;;;;;;;;5025343;28;21028;-81
2022/11/11 08:32:44;;;;;;;7.80;3.73;;;;;;;;;;5030766;28;20597;-79
2022/11/11 08:35:29;;;;;;;4.93;3.70;;;;;;;;;;5006690;28;20291;-80
2022/11/11 08:38:13;;;;;;;6.93;4.40;;;;;;;;;;5008069;28;20226;-82
2022/11/11 08:41:01;;;;;;;5.90;3.87;;;;;;;;;;5022399;28;20293;-82
2022/11/11 08:43:45;;;;;;;4.60;4.00;;;;;;;;;;5006244;28;20596;-82
2022/11/11 08:46:29;;;;;;;4.03;3.63;;;;;;;;;;5030903;28;20368;-82
2022/11/11 08:49:14;;;;;;;5.43;3.63;;;;;;;;;;5008032;28;20701;-85
2022/11/11 08:51:58;;;;;;;4.33;3.80;;;;;;;;;;5008435;28;20364;-83
2022/11/11 08:54:42;;;;;;;5.70;4.13;;;;;;;;;;5021373;28;20334;-83
2022/11/11 08:57:26;;;;;;;5.03;4.53;;;;;;;;;;5025786;28;20230;-80
2022/11/11 09:00:14;;;;;;;6.70;4.40;;;;;;;;;;5021693;28;20276;-82
2022/11/11 09:03:10;;;;;;;5.13;4.10;;;;;;;;;;5028717;28;20597;-83
2022/11/11 09:05:54;;;;;;;5.27;3.90;;;;;;;;;;5033371;28;20242;-79
2022/11/11 09:08:41;;;;;;;6.20;4.33;;;;;;;;;;5039496;28;20234;-82
2022/11/11 09:11:27;;;;;;;5.57;3.60;;;;;;;;;;5028303;28;20284;-83
2022/11/11 09:14:11;;;;;;;5.60;4.33;;;;;;;;;;5009078;28;20246;-81
2022/11/11 09:16:55;;;;;;;5.43;3.77;;;;;;;;;;4998692;28;20218;-78
2022/11/11 09:19:39;;;;;;;3.77;3.47;;;;;;;;;;5034748;28;20817;-81
2022/11/11 09:22:24;;;;;;;4.87;4.00;;;;;;;;;;5045247;28;20591;-84
2022/11/11 09:25:08;;;;;;;5.20;4.17;;;;;;;;;;5060879;28;20710;-79
2022/11/11 09:27:59;;;;;;;5.13;4.07;;;;;;;;;;5033168;28;20230;-81
2022/11/11 09:30:44;;;;;;;4.90;4.40;;;;;;;;;;5032993;28;20230;-81
2022/11/11 09:33:28;;;;;;;5.23;3.87;;;;;;;;;;5020879;28;20221;-81
2022/11/11 09:36:12;;;;;;;6.47;4.37;;;;;;;;;;5027598;28;20302;-84
2022/11/11 09:38:59;;;;;;;10.03;4.67;;;;;;;;;;5028459;28;20711;-81
2022/11/11 09:42:16;;;;;;;4.80;4.30;;;;;;;;;;5029093;28;20650;-83
2022/11/11 09:45:49;;;;;;;6.03;4.20;;;;;;;;;;5027632;28;20357;-81
2022/11/11 09:48:45;;;;;;;5.73;4.67;;;;;;;;;;4993427;28;20331;-81
2022/11/11 09:51:41;;;;;;;5.83;4.40;;;;;;;;;;4998803;28;20776;-82
2022/11/11 09:54:32;;;;;;;6.00;5.00;;;;;;;;;;5008997;28;20234;-82
2022/11/11 09:57:25;;;;;;;7.33;4.90;;;;;;;;;;5040747;28;20349;-82
2022/11/11 10:00:34;;;;;;;4.53;4.13;;;;;;;;;;5047518;28;20231;-82
2022/11/11 10:03:20;;;;;;;4.90;3.90;;;;;;;;;;5045471;28;20284;-82
2022/11/11 10:06:20;;;;;;;6.57;4.73;;;;;;;;;;5025991;28;20300;-81
2022/11/11 10:09:21;;;;;;;6.03;4.33;;;;;;;;;;5023725;28;20257;-82
2022/11/11 10:12:17;;;;;;;4.97;4.20;;;;;;;;;;5022594;28;20737;-84
2022/11/11 10:15:03;;;;;;;4.97;3.93;;;;;;;;;;5024034;28;20266;-82
2022/11/11 10:18:09;;;;;;;6.33;4.13;;;;;;;;;;5037371;28;20230;-81
2022/11/11 10:20:54;;;;;;;6.07;4.07;;;;;;;;;;5040500;28;20365;-82
2022/11/11 10:23:38;;;;;;;7.70;4.67;;;;;;;;;;5013654;28;20658;-82
2022/11/11 10:26:25;;;;;;;5.43;4.67;;;;;;;;;;5020245;28;20246;-82
2022/11/11 10:29:19;;;;;;;5.53;4.03;;;;;;;;;;5024887;28;20227;-80
2022/11/11 10:32:15;;;;;;;5.00;3.50;;;;;;;;;;5009544;28;20257;-81
2022/11/11 10:35:17;;;;;;;6.57;4.17;;;;;;;;;;5042902;28;20718;-81
2022/11/11 10:38:38;;;;;;;4.07;3.67;;;;;;;;;;5027247;28;20608;-80
2022/11/11 10:41:24;;;;;;;6.17;4.17;;;;;;;;;;5017133;28;20706;-84
2022/11/11 10:44:26;;;;;;;5.27;3.70;;;;;;;;;;5041600;28;20312;-84
2022/11/11 10:47:29;;;;;;;5.20;4.20;;;;;;;;;;5033515;28;20297;-82
2022/11/11 10:50:15;;;;;;;3.73;3.43;;;;;;;;;;5049514;28;20258;-81
2022/11/11 10:53:16;;;;;;;4.07;3.43;;;;;;;;;;5029967;28;20293;-85
2022/11/11 10:56:24;;;;;;;4.73;4.27;;;;;;;;;;5028329;28;20262;-82
2022/11/11 10:59:19;;;;;;;5.33;3.33;;;;;;;;;;5052446;28;20310;-83
2022/11/11 11:02:12;;;;;;;7.67;3.73;;;;;;;;;;5037731;28;20306;-82
2022/11/11 11:05:25;;;;;;;3.83;3.03;;;;;;;;;;5020937;28;20238;-81
2022/11/11 11:08:23;;;;;;;3.90;2.93;;;;;;;;;;5048725;28;20261;-80
2022/11/11 11:11:20;;;;;;;5.00;3.17;;;;;;;;;;5021815;28;20242;-84
2022/11/11 11:14:09;;;;;;;3.97;2.70;;;;;;;;;;5026979;28;20251;-81
2022/11/11 11:16:57;;;;;;;4.60;2.63;;;;;;;;;;5030353;28;20292;-83
2022/11/11 11:19:41;;;;;;;2.77;2.53;;;;;;;;;;5022239;28;20239;-83
2022/11/11 11:22:44;;;;;;;6.95;2.60;;;;;;;;;;5033642;28;20222;-82
2022/11/11 11:25:30;;;;;;;7.22;2.80;;;;;;;;;;5041257;28;20237;-82
2022/11/11 11:28:14;;;;;;;3.17;2.60;;;;;;;;;;5043739;28;20313;-83
2022/11/11 11:31:03;;;;;;;4.22;2.78;;;;;;;;;;5046690;28;20218;-85
2022/11/11 11:33:52;;;;;;;5.30;2.50;;;;;;;;;;5038822;28;20244;-84
2022/11/11 11:36:36;;;;;;;5.73;2.87;;;;;;;;;;5046461;28;20222;-85
2022/11/11 11:39:38;;;;;;;3.10;2.40;;;;;;;;;;5026839;28;20258;-82
2022/11/11 11:42:35;;;;;;;4.90;2.13;;;;;;;;;;5041985;28;20653;-81
2022/11/11 11:45:28;;;;;;;2.70;2.23;;;;;;;;;;5013240;28;20217;-83
2022/11/11 11:48:23;;;;;;;3.70;2.20;;;;;;;;;;5027845;28;20288;-82
2022/11/11 11:51:20;;;;;;;4.37;2.30;;;;;;;;;;5039169;28;20298;-80
2022/11/11 11:54:19;;;;;;;2.93;2.00;;;;;;;;;;5030238;28;20241;-85
2022/11/11 11:57:07;;;;;;;3.93;2.20;;;;;;;;;;5056137;28;20241;-82
2022/11/11 12:00:17;;;;;;;2.83;2.00;;;;;;;;;;5011806;28;20253;-84
2022/11/11 12:03:24;;;;;;;4.00;1.88;;;;;;;;;;5035401;28;20230;-85
2022/11/11 12:06:33;;;;;;;3.65;1.90;;;;;;;;;;5043381;28;20238;-80
2022/11/11 12:09:39;;;;;;;3.33;2.00;;;;;;;;;;5037455;28;20261;-80
2022/11/11 12:12:32;;;;;;;4.68;2.10;;;;;;;;;;5040947;28;20233;-81
2022/11/11 12:15:31;;;;;;;3.15;1.88;;;;;;;;;;5039948;28;20253;-84
2022/11/11 12:18:34;;;;;;;3.25;1.90;;;;;;;;;;5034914;28;20226;-81
2022/11/11 12:21:21;;;;;;;4.10;2.20;;;;;;;;;;5037329;28;20233;-81
2022/11/11 12:24:30;;;;;;;2.83;1.90;;;;;;;;;;5033728;28;20231;-81
2022/11/11 12:27:17;;;;;;;3.15;2.00;;;;;;;;;;5057651;28;20292;-83
2022/11/11 12:30:09;;;;;;;2.47;1.90;;;;;;;;;;5046464;28;20233;-82
2022/11/11 12:33:19;;;;;;;5.30;1.90;;;;;;;;;;5027640;28;20295;-83
2022/11/11 12:36:11;;;;;;;3.37;1.73;;;;;;;;;;5039841;28;20610;-86
2022/11/11 12:39:19;;;;;;;3.65;1.80;;;;;;;;;;5013027;28;20234;-80
2022/11/11 12:42:06;;;;;;;3.60;1.70;;;;;;;;;;5037946;28;20296;-80
2022/11/11 12:45:17;;;;;;;2.73;1.80;;;;;;;;;;5044570;28;20246;-82
2022/11/11 12:48:08;;;;;;;2.10;1.60;;;;;;;;;;5029670;28;20238;-83
2022/11/11 12:51:01;;;;;;;1.70;1.57;;;;;;;;;;5039802;28;20234;-81
2022/11/11 12:53:48;;;;;;;3.45;1.70;;;;;;;;;;5025918;28;20376;-80
2022/11/11 12:56:41;;;;;;;1.60;1.47;;;;;;;;;;5027421;28;20589;-82
2022/11/11 13:00:02;;;;;;;3.03;1.90;;;;;;;;;;5038549;28;20278;-84
2022/11/11 13:03:11;;;;;;;2.72;1.63;;;;;;;;;;5054277;28;20761;-84
2022/11/11 13:06:10;;;;;;;3.70;1.80;;;;;;;;;;5009135;23;20282;-74
2022/11/11 13:09:11;;;;;;;2.53;1.48;;;;;;;;;;5020776;28;20267;-74
2022/11/11 13:12:14;;;;;;;3.38;1.70;;;;;;;;;;5083066;23;20250;-74
2022/11/11 13:15:03;;;;;;;2.77;1.90;;;;;;;;;;5024884;28;20255;-74
2022/11/11 13:17:49;;;;;;;3.45;1.67;;;;;;;;;;5023681;28;20264;-74
2022/11/11 13:20:44;;;;;;;5.30;1.98;;;;;;;;;;5026194;28;20250;-74
2022/11/11 13:23:33;;;;;;;3.00;1.45;;;;;;;;;;5025552;28;20352;-73
2022/11/11 13:26:26;;;;;;;2.17;1.45;;;;;;;;;;5012534;28;20406;-72
2022/11/11 13:29:49;;;;;;;2.15;1.20;;;;;;;;;;4994322;28;20258;-73
2022/11/11 13:32:54;;;;;;;2.17;1.38;;;;;;;;;;5016285;28;20227;-73
2022/11/11 13:35:46;;;;;;;2.33;1.30;;;;;;;;;;5012364;28;20243;-73
2022/11/11 13:38:36;;;;;;;3.05;1.40;;;;;;;;;;5027633;28;20662;-73
2022/11/11 13:41:43;;;;;;;3.75;1.35;;;;;;;;;;5009934;28;20347;-73
2022/11/11 13:44:38;;;;;;;3.33;1.38;;;;;;;;;;5027126;28;20234;-74
2022/11/11 13:47:26;;;;;;;1.65;1.10;;;;;;;;;;5028177;28;20235;-73
2022/11/11 13:50:23;;;;;;;2.97;1.33;;;;;;;;;;5013643;28;20311;-72
2022/11/11 13:53:23;;;;;;;3.17;1.45;;;;;;;;;;5026401;28;20262;-72
2022/11/11 13:56:10;;;;;;;1.98;1.08;;;;;;;;;;5014253;28;20231;-73
2022/11/11 13:58:55;;;;;;;4.45;1.48;;;;;;;;;;5040959;28;20273;-73
2022/11/11 14:01:39;;;;;;;2.83;1.33;;;;;;;;;;5024825;28;20222;-73
2022/11/11 14:04:24;;;;;;;4.63;1.60;;;;;;;;;;5021121;28;20234;-74
2022/11/11 14:07:08;;;;;;;2.25;1.08;;;;;;;;;;5011554;28;21488;-73
2022/11/11 14:10:02;;;;;;;3.40;1.30;;;;;;;;;;5027974;28;20437;-73
2022/11/11 14:12:50;;;;;;;2.05;1.30;;;;;;;;;;5028915;28;20266;-72
2022/11/11 14:15:53;;;;;;;1.95;1.15;;;;;;;;;;5015153;28;20304;-73
2022/11/11 14:18:39;;;;;;;2.63;1.30;;;;;;;;;;5026753;28;20235;-72
2022/11/11 14:21:53;;;;;;;2.13;1.13;;;;;;;;;;5039322;23;20258;-82
2022/11/11 14:24:39;;;;;;;2.63;1.20;;;;;;;;;;5056710;28;20623;-82
2022/11/11 14:27:28;;;;;;;1.85;1.10;;;;;;;;;;5023224;28;20867;-82
2022/11/11 14:30:35;;;;;;;3.13;1.35;;;;;;;;;;5040809;28;20226;-81
2022/11/11 14:33:41;;;;;;;3.00;1.50;;;;;;;;;;5059773;28;20266;-81
2022/11/11 14:36:36;;;;;;;3.00;1.20;;;;;;;;;;5051760;28;20254;-81
2022/11/11 14:40:01;;;;;;;2.83;1.30;;;;;;;;;;5052846;28;20234;-79
2022/11/11 14:42:46;;;;;;;3.53;2.00;;;;;;;;;;5038591;28;20235;-81
2022/11/11 14:45:30;;;;;;;4.10;1.98;;;;;;;;;;5026327;23;20263;-74
2022/11/11 14:49:02;;;;;;;2.67;1.98;;;;;;;;;;5028921;28;20663;-72
2022/11/11 14:51:54;;;;;;;3.47;1.60;;;;;;;;;;5017132;28;20223;-72
2022/11/11 14:54:51;;;;;;;2.85;1.40;;;;;;;;;;4999568;28;20353;-73
2022/11/11 14:58:09;;;;;;;1.97;1.40;;;;;;;;;;5024052;28;20231;-75
2022/11/11 15:01:11;;;;;;;2.87;1.40;;;;;;;;;;5030266;28;20620;-72
2022/11/11 15:03:55;;;;;;;3.70;1.50;;;;;;;;;;5028463;28;20238;-72
2022/11/11 15:07:02;;;;;;;3.20;1.40;;;;;;;;;;5026948;28;20230;-73
2022/11/11 15:10:33;;;;;;;2.87;1.40;;;;;;;;;;5027129;23;20235;-71
2022/11/11 15:13:17;;;;;;;2.53;1.50;;;;;;;;;;4992729;28;20282;-72
2022/11/11 15:16:14;;;;;;;2.37;1.50;;;;;;;;;;4986935;28;20239;-73
2022/11/11 15:19:04;;;;;;;3.33;1.90;;;;;;;;;;4994856;28;20247;-73
2022/11/11 15:22:06;;;;;;;4.40;1.80;;;;;;;;;;5006632;28;20287;-73
2022/11/11 15:25:05;;;;;;;2.17;1.47;;;;;;;;;;5007453;28;20239;-71
2022/11/11 15:27:53;;;;;;;5.13;1.60;;;;;;;;;;4980425;28;20227;-72
2022/11/11 15:30:50;;;;;;;4.00;1.57;;;;;;;;;;4981206;28;20236;-73
2022/11/11 15:33:49;;;;;;;1.40;1.20;;;;;;;;;;4999137;28;20279;-77
2022/11/11 15:36:58;;;;;;;1.67;1.23;;;;;;;;;;4971843;28;20287;-74
2022/11/11 15:39:48;;;;;;;2.00;1.53;;;;;;;;;;4994034;28;20290;-74
2022/11/11 15:42:36;;;;;;;4.17;2.00;;;;;;;;;;4988368;28;20307;-75
2022/11/11 15:45:22;;;;;;;2.10;1.63;;;;;;;;;;4993086;28;20254;-72
2022/11/11 15:48:22;;;;;;;3.60;1.60;;;;;;;;;;4969216;28;20598;-72
2022/11/11 15:51:17;;;;;;;3.73;1.30;;;;;;;;;;4977200;28;20587;-73
2022/11/11 15:54:21;;;;;;;3.40;1.43;;;;;;;;;;4975199;28;20263;-70
2022/11/11 15:57:38;;;;;;;2.87;1.60;;;;;;;;;;4986921;28;20271;-74
2022/11/11 16:00:22;;;;;;;2.80;1.50;;;;;;;;;;4977565;28;20548;-71
2022/11/11 16:06:28;;;;;;;3.13;1.37;;;;;;;;;;4898358;29;20297;-82
2022/11/11 16:09:14;;;;;;;1.90;1.30;;;;;;;;;;4909393;29;20231;-84
2022/11/11 16:11:59;;;;;;;2.63;1.20;;;;;;;;;;4906640;29;20291;-84
2022/11/11 16:14:44;;;;;;;2.37;1.23;;;;;;;;;;4907612;29;20238;-84
2022/11/11 16:17:32;;;;;;;2.67;1.47;;;;;;;;;;4887799;29;20256;-84
2022/11/11 16:20:22;;;;;;;1.30;1.20;;;;;;;;;;4914146;29;20255;-84
2022/11/11 16:26:31;;;;;;;1.80;1.30;;;;;;;;;;4948345;28;20317;-73
2022/11/11 16:29:15;;;;;;;1.60;1.40;;;;;;;;;;4934674;29;20233;-73
2022/11/11 16:32:00;;;;;;;2.73;1.37;;;;;;;;;;4935542;29;20257;-75
2022/11/11 16:34:47;;;;;;;2.07;1.37;;;;;;;;;;4914859;29;20233;-76
2022/11/11 16:37:53;;;;;;;4.23;1.83;;;;;;;;;;4937373;29;20229;-72
2022/11/11 16:40:44;;;;;;;3.30;2.20;;;;;;;;;;4958834;28;21269;-74
2022/11/11 16:43:32;;;;;;;3.63;3.00;;;;;;;;;;4948208;28;20233;-74
2022/11/11 16:46:37;;;;;;;4.77;3.50;;;;;;;;;;4928873;28;20342;-74
2022/11/11 16:49:42;;;;;;;7.00;2.90;;;;;;;;;;4948286;28;20736;-70
2022/11/11 16:52:26;;;;;;;4.83;2.30;;;;;;;;;;4934735;28;20744;-72
2022/11/11 16:55:20;;;;;;;3.00;2.13;;;;;;;;;;4921471;28;20260;-72
2022/11/11 16:58:18;;;;;;;2.60;2.23;;;;;;;;;;4935982;28;20744;-72
2022/11/11 17:01:02;;;;;;;4.43;2.50;;;;;;;;;;4964062;28;20318;-72
2022/11/11 17:03:53;;;;;;;3.47;2.30;;;;;;;;;;4932440;29;20293;-72
2022/11/11 17:07:01;;;;;;;2.53;2.33;;;;;;;;;;4952516;28;20281;-72
2022/11/11 17:09:48;;;;;;;2.67;2.43;;;;;;;;;;4951033;28;20257;-73
2022/11/11 17:12:39;;;;;;;3.40;2.60;;;;;;;;;;4943104;28;20233;-71
2022/11/11 17:15:23;;;;;;;4.20;2.43;;;;;;;;;;4934582;28;20241;-72
2022/11/11 17:18:11;;;;;;;3.37;2.90;;;;;;;;;;4921269;28;20259;-73
2022/11/11 17:20:56;;;;;;;2.60;2.33;;;;;;;;;;4934401;29;20277;-74
2022/11/11 17:23:40;;;;;;;3.73;2.40;;;;;;;;;;4928183;28;20246;-71
2022/11/11 17:26:24;;;;;;;4.53;3.43;;;;;;;;;;4947813;28;20778;-72
2022/11/11 17:29:09;;;;;;;6.57;3.50;;;;;;;;;;4920058;28;20233;-73
2022/11/11 17:31:56;;;;;;;5.03;3.90;;;;;;;;;;4935324;29;20330;-72
2022/11/11 17:34:43;;;;;;;3.97;3.67;;;;;;;;;;4920679;29;20237;-73
2022/11/11 17:37:30;;;;;;;2.93;2.43;;;;;;;;;;4947830;28;20341;-73
2022/11/11 17:40:14;;;;;;;3.23;2.10;;;;;;;;;;4920405;29;20736;-72
2022/11/11 17:42:59;;;;;;;2.70;1.63;;;;;;;;;;4920075;29;20297;-75
2022/11/11 17:45:45;;;;;;;1.67;1.57;;;;;;;;;;4938380;29;20244;-73
2022/11/11 17:48:29;;;;;;;2.50;1.77;;;;;;;;;;4923923;28;20230;-71
2022/11/11 17:51:13;;;;;;;2.63;2.40;;;;;;;;;;4929032;28;20652;-73
2022/11/11 17:54:00;;;;;;;10.10;9.10;;;;;;;;;;4936196;29;20351;-71
2022/11/11 17:56:46;;;;;;;8.87;6.83;;;;;;;;;;4950963;29;20281;-72
2022/11/11 17:59:32;;;;;;;9.57;7.10;;;;;;;;;;4950806;28;20229;-74
2022/11/11 18:02:18;;;;;;;6.93;6.33;;;;;;;;;;4951762;28;20230;-73
2022/11/11 18:05:03;;;;;;;8.07;7.27;;;;;;;;;;4923486;29;20229;-73
2022/11/11 18:07:47;;;;;;;4.67;4.27;;;;;;;;;;4936859;29;20342;-72
2022/11/11 18:10:33;;;;;;;5.40;4.43;;;;;;;;;;4924664;29;20248;-72
2022/11/11 18:13:18;;;;;;;5.93;4.40;;;;;;;;;;4949574;28;20728;-72
2022/11/11 18:16:02;;;;;;;3.93;3.57;;;;;;;;;;4938308;28;20229;-72
2022/11/11 18:18:50;;;;;;;7.53;5.00;;;;;;;;;;4939167;29;20233;-74
2022/11/11 18:21:35;;;;;;;6.60;3.90;;;;;;;;;;4911166;29;20817;-73
2022/11/11 18:24:21;;;;;;;4.70;3.33;;;;;;;;;;4937263;28;20258;-72
2022/11/11 18:27:05;;;;;;;4.00;3.60;;;;;;;;;;4940076;28;20735;-73
2022/11/11 18:29:49;;;;;;;3.17;2.50;;;;;;;;;;4954082;28;20234;-73
2022/11/11 18:32:36;;;;;;;1.60;1.50;;;;;;;;;;4939706;28;20230;-72